Time;durP1;ratioP1;P1;durP2;ratioP2;P2;SDS_P1;SDS_P2;PMS_P1;PMS_P2;Temp;Humidity;BMP_temperature;BMP_pressure;BME280_temperature;BME280_humidity;BME280_pressure;Samples;Min_cycle;Max_cycle;Signal;HPM_P1;HPM_P2
2023/01/15 00:01:26;;;;;;;3.15;1.20;;;;;;;6.52;75.21;94692.00;4979046;28;20493;-76
2023/01/15 00:03:53;;;;;;;2.00;1.10;;;;;;;6.39;74.60;94698.56;4976538;28;20089;-75
2023/01/15 00:06:19;;;;;;;4.20;1.08;;;;;;;6.27;80.74;94679.72;4993841;28;20043;-75
2023/01/15 00:08:45;;;;;;;1.25;1.10;;;;;;;6.16;82.69;94672.94;4999564;28;20065;-75
2023/01/15 00:11:11;;;;;;;2.65;1.30;;;;;;;6.13;82.50;94678.69;5003720;28;20046;-75
2023/01/15 00:13:36;;;;;;;5.38;1.15;;;;;;;6.12;83.41;94661.44;4982511;28;20047;-75
2023/01/15 00:16:07;;;;;;;2.03;1.30;;;;;;;5.98;86.95;94650.75;5013051;28;20038;-75
2023/01/15 00:18:33;;;;;;;1.73;1.17;;;;;;;5.86;89.04;94643.13;5011291;28;20045;-75
2023/01/15 00:20:59;;;;;;;3.22;1.40;;;;;;;5.83;89.87;94638.41;4982440;28;20042;-75
2023/01/15 00:28:58;;;;;;;1.75;1.10;;;;;;;5.86;86.36;94627.44;5000793;28;20060;-75
2023/01/15 00:31:23;;;;;;;2.97;1.40;;;;;;;5.93;83.10;94627.97;5006434;28;20487;-74
2023/01/15 00:33:49;;;;;;;1.70;1.15;;;;;;;5.95;84.96;94636.34;5002063;28;20740;-75
2023/01/15 00:36:14;;;;;;;2.35;1.00;;;;;;;5.94;84.48;94624.31;4993049;28;20046;-74
2023/01/15 00:38:40;;;;;;;3.00;1.05;;;;;;;5.90;83.13;94628.50;4998636;28;20463;-75
2023/01/15 00:41:05;;;;;;;2.40;1.33;;;;;;;5.87;87.41;94618.56;4993825;28;20042;-74
2023/01/15 00:43:31;;;;;;;1.85;1.10;;;;;;;5.98;82.97;94627.25;5000988;28;20125;-75
2023/01/15 00:45:56;;;;;;;1.95;1.10;;;;;;;5.97;85.45;94613.38;4986116;28;20042;-75
2023/01/15 00:48:22;;;;;;;1.65;1.05;;;;;;;5.91;84.36;94609.19;5005175;28;20413;-75
2023/01/15 00:50:47;;;;;;;1.23;0.90;;;;;;;5.88;86.48;94625.38;4974992;28;20061;-75
2023/01/15 00:53:13;;;;;;;1.55;0.93;;;;;;;6.00;81.60;94623.31;5004689;28;20412;-73
2023/01/15 00:55:39;;;;;;;1.73;1.10;;;;;;;6.06;82.14;94617.06;4996085;28;20428;-75
2023/01/15 00:58:04;;;;;;;0.98;0.80;;;;;;;6.20;79.46;94621.72;5006886;28;20045;-75
2023/01/15 01:00:30;;;;;;;1.75;0.95;;;;;;;6.18;82.72;94616.78;5010962;28;20053;-75
2023/01/15 01:02:56;;;;;;;1.20;1.00;;;;;;;6.16;81.14;94610.25;5001125;28;20045;-75
2023/01/15 01:05:21;;;;;;;1.60;0.98;;;;;;;6.04;84.87;94613.91;5004352;28;20516;-75
2023/01/15 01:07:47;;;;;;;1.60;1.05;;;;;;;6.03;87.65;94614.97;5010572;28;20050;-75
2023/01/15 01:10:12;;;;;;;2.42;1.23;;;;;;;5.95;85.37;94623.28;5003053;28;20043;-75
2023/01/15 01:12:38;;;;;;;2.22;1.17;;;;;;;5.95;88.21;94610.22;5001400;28;20121;-74
2023/01/15 01:15:04;;;;;;;1.17;0.98;;;;;;;5.95;85.76;94610.22;5000066;28;20050;-75
2023/01/15 01:17:30;;;;;;;1.83;1.30;;;;;;;5.93;89.37;94590.63;5012503;28;20038;-75
2023/01/15 01:19:55;;;;;;;2.25;1.42;;;;;;;5.92;88.49;94605.53;4998111;28;20045;-75
2023/01/15 01:22:21;;;;;;;1.67;1.00;;;;;;;5.89;90.37;94600.84;4987990;28;20070;-75
2023/01/15 01:24:46;;;;;;;0.73;0.73;;;;;;;5.88;92.42;94599.25;5007998;28;20049;-75
2023/01/15 01:27:12;;;;;;;2.13;1.30;;;;;;;5.88;88.88;94609.72;4984779;28;20066;-75
2023/01/15 01:29:37;;;;;;;2.20;1.13;;;;;;;5.89;90.25;94601.63;5003825;28;20039;-75
2023/01/15 01:32:03;;;;;;;1.55;0.98;;;;;;;5.91;91.10;94588.28;5006244;28;20551;-75
2023/01/15 01:34:28;;;;;;;1.30;0.95;;;;;;;5.96;86.47;94600.56;4989611;28;20550;-75
2023/01/15 01:36:54;;;;;;;1.20;0.82;;;;;;;5.93;92.52;94591.41;5001692;28;20041;-74
2023/01/15 01:39:20;;;;;;;1.77;1.00;;;;;;;5.91;90.49;94583.06;5004565;28;20416;-75
2023/01/15 01:41:46;;;;;;;2.88;1.20;;;;;;;5.95;92.38;94571.06;5000996;28;20043;-75
2023/01/15 01:44:31;;;;;;;2.03;1.15;;;;;;;5.84;94.22;94572.09;4992673;28;20048;-75
2023/01/15 01:46:57;;;;;;;1.02;0.82;;;;;;;5.79;99.36;94561.66;4982670;28;20046;-74
2023/01/15 01:49:24;;;;;;;1.48;0.95;;;;;;;5.82;99.50;94554.09;4995525;28;20037;-75
2023/01/15 01:51:53;;;;;;;2.25;1.40;;;;;;;5.65;100.00;94533.47;4973708;28;20045;-75
2023/01/15 01:54:22;;;;;;;1.58;0.82;;;;;;;5.55;100.00;94538.69;5000076;28;20051;-75
2023/01/15 01:56:48;;;;;;;1.85;1.15;;;;;;;5.40;100.00;94525.63;5011154;28;20053;-75
2023/01/15 01:59:16;;;;;;;2.67;1.17;;;;;;;5.35;100.00;94529.03;4989865;28;20049;-75
2023/01/15 02:01:42;;;;;;;1.88;1.08;;;;;;;5.33;100.00;94521.47;5006151;28;20425;-75
2023/01/15 02:04:09;;;;;;;2.08;1.10;;;;;;;5.27;100.00;94512.09;4976948;28;20065;-74
2023/01/15 02:06:36;;;;;;;1.80;1.15;;;;;;;5.24;100.00;94502.16;5001001;28;20068;-74
2023/01/15 02:09:02;;;;;;;4.00;1.67;;;;;;;5.24;100.00;94502.16;5004256;28;20030;-75
2023/01/15 02:11:29;;;;;;;4.43;1.35;;;;;;;5.23;100.00;94500.59;4978054;28;20101;-75
2023/01/15 02:14:13;;;;;;;1.98;1.08;;;;;;;5.28;100.00;94503.19;5000214;28;20054;-75
2023/01/15 02:16:51;;;;;;;1.92;1.30;;;;;;;5.25;100.00;94498.50;5006810;28;20038;-75
2023/01/15 02:19:38;;;;;;;1.98;1.25;;;;;;;5.31;100.00;94487.00;5011119;28;20042;-75
2023/01/15 02:22:22;;;;;;;2.03;1.20;;;;;;;5.30;100.00;94475.03;4994269;28;20092;-75
2023/01/15 02:25:04;;;;;;;1.70;1.30;;;;;;;5.30;100.00;94467.22;4990207;28;20122;-74
2023/01/15 02:27:30;;;;;;;2.20;1.27;;;;;;;5.36;100.00;94473.97;4973680;28;20061;-75
2023/01/15 02:30:05;;;;;;;2.03;1.00;;;;;;;5.44;100.00;94479.72;4984646;28;20038;-74
2023/01/15 02:32:39;;;;;;;2.30;0.80;;;;;;;5.35;100.00;94469.81;5004491;28;20038;-75
2023/01/15 02:35:33;;;;;;;2.22;1.27;;;;;;;5.38;100.00;94471.88;4978407;28;20054;-75
2023/01/15 02:38:03;;;;;;;2.53;1.00;;;;;;;5.43;100.00;94465.09;4985297;28;20054;-75
2023/01/15 02:40:30;;;;;;;1.60;1.00;;;;;;;5.41;100.00;94467.19;4994019;28;20042;-75
2023/01/15 02:42:57;;;;;;;1.77;1.20;;;;;;;5.45;100.00;94460.41;4976151;28;20550;-75
2023/01/15 02:45:27;;;;;;;2.65;1.00;;;;;;;5.45;100.00;94461.19;5003392;28;20058;-75
2023/01/15 02:47:56;;;;;;;1.42;0.82;;;;;;;5.45;100.00;94466.41;4978255;28;20039;-75
2023/01/15 02:50:30;;;;;;;1.95;1.15;;;;;;;5.44;100.00;94469.28;4978642;28;20041;-75
2023/01/15 02:53:02;;;;;;;1.13;0.93;;;;;;;5.46;100.00;94454.13;4988923;28;20415;-75
2023/01/15 02:55:32;;;;;;;4.95;1.70;;;;;;;5.43;100.00;94452.84;5001191;28;20471;-74
2023/01/15 02:58:03;;;;;;;1.38;0.80;;;;;;;5.41;100.00;94456.75;5002475;28;20096;-75
2023/01/15 03:00:31;;;;;;;2.25;1.00;;;;;;;5.47;100.00;94455.72;5005024;28;20049;-74
2023/01/15 03:03:06;;;;;;;2.85;1.02;;;;;;;5.53;100.00;94457.25;4987600;28;20234;-74
2023/01/15 03:05:39;;;;;;;2.13;0.88;;;;;;;5.58;100.00;94448.66;5006645;28;20120;-75
2023/01/15 03:08:07;;;;;;;1.77;1.00;;;;;;;5.52;100.00;94435.59;4994680;28;20170;-75
2023/01/15 03:10:56;;;;;;;1.45;0.90;;;;;;;5.55;100.00;94423.88;4997407;28;20412;-75
2023/01/15 03:13:41;;;;;;;1.55;0.90;;;;;;;5.49;100.00;94425.69;4965869;28;20062;-75
2023/01/15 03:16:34;;;;;;;2.83;1.15;;;;;;;5.55;100.00;94424.63;4998614;28;20049;-74
2023/01/15 03:19:06;;;;;;;1.10;0.80;;;;;;;5.58;100.00;94412.91;4992372;28;20038;-75
2023/01/15 03:21:46;;;;;;;2.42;1.10;;;;;;;5.61;100.00;94409.75;4999767;28;20042;-75
2023/01/15 03:24:13;;;;;;;2.35;1.00;;;;;;;5.70;100.00;94416.00;5001070;28;20042;-75
2023/01/15 03:26:39;;;;;;;3.30;0.90;;;;;;;5.68;100.00;94405.03;5004195;28;20450;-74
2023/01/15 03:29:07;;;;;;;1.55;1.00;;;;;;;5.58;100.00;94397.25;4991688;28;20117;-75
2023/01/15 03:31:34;;;;;;;2.47;1.00;;;;;;;5.48;100.00;94392.03;5001691;28;20559;-75
2023/01/15 03:34:00;;;;;;;2.00;1.25;;;;;;;5.43;100.00;94399.88;4997687;28;20046;-75
2023/01/15 03:36:26;;;;;;;2.83;0.95;;;;;;;5.47;100.00;94400.91;5000494;28;20043;-75
2023/01/15 03:38:52;;;;;;;2.63;0.90;;;;;;;5.49;100.00;94409.28;5002800;28;20515;-75
2023/01/15 03:41:40;;;;;;;1.80;0.98;;;;;;;5.46;100.00;94399.34;5003918;28;20521;-75
2023/01/15 03:44:18;;;;;;;1.65;0.93;;;;;;;5.31;100.00;94393.09;4997733;28;20105;-75
2023/01/15 03:47:17;;;;;;;1.35;0.80;;;;;;;5.23;100.00;94391.03;5007010;28;20046;-75
2023/01/15 03:49:56;;;;;;;1.38;1.10;;;;;;;5.22;100.00;94383.47;4995891;28;20042;-75
2023/01/15 03:52:30;;;;;;;1.60;1.13;;;;;;;5.27;100.00;94375.63;4988792;28;20120;-75
2023/01/15 03:55:07;;;;;;;1.95;1.10;;;;;;;5.37;100.00;94392.06;4989484;28;20158;-75
2023/01/15 03:57:35;;;;;;;3.33;0.80;;;;;;;5.40;100.00;94385.53;4997577;28;20093;-75
2023/01/15 04:00:08;;;;;;;1.92;1.10;;;;;;;5.36;100.00;94382.66;4987346;28;20475;-75
2023/01/15 04:02:36;;;;;;;2.78;0.95;;;;;;;5.31;100.00;94367.00;5004131;28;20524;-75
2023/01/15 04:05:02;;;;;;;1.23;0.90;;;;;;;5.40;100.00;94374.31;5001152;28;20479;-74
2023/01/15 04:07:30;;;;;;;7.03;1.20;;;;;;;5.38;100.00;94362.31;5009259;28;20638;-75
2023/01/15 04:09:55;;;;;;;0.98;0.93;;;;;;;5.47;100.00;94365.16;4989135;28;20049;-75
2023/01/15 04:12:21;;;;;;;1.63;0.90;;;;;;;5.49;100.00;94357.09;4993233;28;20034;-74
2023/01/15 04:14:46;;;;;;;1.33;1.02;;;;;;;5.41;100.00;94357.63;4991830;28;20042;-75
2023/01/15 04:17:12;;;;;;;1.38;0.93;;;;;;;5.36;100.00;94359.19;5008283;28;20042;-75
2023/01/15 04:19:37;;;;;;;1.55;1.20;;;;;;;5.37;100.00;94360.75;4995352;28;20125;-74
2023/01/15 04:22:03;;;;;;;1.35;1.00;;;;;;;5.28;100.00;94367.53;4991144;28;20049;-74
2023/01/15 04:24:29;;;;;;;2.33;1.25;;;;;;;5.15;100.00;94362.88;4991099;28;20062;-75
2023/01/15 04:26:54;;;;;;;1.75;1.00;;;;;;;5.16;100.00;94359.22;4979232;28;20049;-74
2023/01/15 04:29:20;;;;;;;0.90;0.90;;;;;;;5.19;100.00;94358.69;5013198;28;20041;-75
2023/01/15 04:31:46;;;;;;;1.65;1.10;;;;;;;5.14;100.00;94361.31;5003280;28;20038;-75
2023/01/15 04:34:11;;;;;;;1.85;1.20;;;;;;;5.17;100.00;94355.56;5008285;28;20092;-75
2023/01/15 04:36:37;;;;;;;1.70;1.05;;;;;;;5.17;100.00;94345.13;4999742;28;20042;-74
2023/01/15 04:39:04;;;;;;;3.47;0.90;;;;;;;5.07;100.00;94345.16;5011873;28;20518;-73
2023/01/15 04:44:14;;;;;;;1.08;0.82;;;;;;;4.91;100.00;94337.31;4994199;28;20045;-74
2023/01/15 04:46:42;;;;;;;1.65;1.08;;;;;;;4.92;100.00;94336.28;4985822;28;20041;-74
2023/01/15 04:49:11;;;;;;;1.45;1.10;;;;;;;4.93;100.00;94332.66;5014266;28;20042;-74
2023/01/15 04:51:38;;;;;;;2.88;1.10;;;;;;;4.81;100.00;94332.13;5020277;28;20054;-73
2023/01/15 04:54:05;;;;;;;1.98;1.05;;;;;;;4.78;100.00;94324.84;5030774;28;20025;-73
2023/01/15 04:56:31;;;;;;;2.20;1.20;;;;;;;4.84;100.00;94323.78;5029328;28;20049;-74
2023/01/15 04:59:01;;;;;;;2.38;1.30;;;;;;;4.83;100.00;94324.84;5037872;28;20026;-71
2023/01/15 05:01:26;;;;;;;1.13;1.02;;;;;;;4.79;100.00;94323.78;4995923;28;20049;-71
2023/01/15 05:03:52;;;;;;;1.70;1.15;;;;;;;4.79;100.00;94323.78;5019137;28;20033;-72
2023/01/15 05:06:17;;;;;;;2.45;1.17;;;;;;;4.75;100.00;94327.97;5019070;28;20109;-71
2023/01/15 05:08:44;;;;;;;2.15;1.35;;;;;;;4.71;100.00;94325.09;5015598;28;20042;-71
2023/01/15 05:11:09;;;;;;;1.70;1.15;;;;;;;4.64;100.00;94322.75;5038068;28;20057;-72
2023/01/15 05:13:35;;;;;;;1.63;1.10;;;;;;;4.67;100.00;94317.03;4991131;28;20052;-74
2023/01/15 05:16:25;;;;;;;2.92;1.25;;;;;;;4.77;100.00;94328.47;4992390;28;20535;-75
2023/01/15 05:18:53;;;;;;;2.17;1.23;;;;;;;5.14;100.00;94340.44;4983543;28;20643;-75
2023/01/15 05:21:20;;;;;;;1.48;1.00;;;;;;;5.18;100.00;94341.47;5006113;28;20046;-75
2023/01/15 05:23:47;;;;;;;2.33;1.25;;;;;;;5.15;100.00;94336.78;4989878;28;20042;-75
2023/01/15 05:26:13;;;;;;;1.83;1.00;;;;;;;5.09;100.00;94348.28;4992022;28;20046;-75
2023/01/15 05:28:39;;;;;;;2.88;1.30;;;;;;;5.01;100.00;94332.13;4996548;28;20108;-75
2023/01/15 05:31:07;;;;;;;1.25;0.93;;;;;;;5.01;100.00;94342.56;4997311;28;20419;-75
2023/01/15 05:33:33;;;;;;;2.50;1.13;;;;;;;5.09;100.00;94337.84;4999972;28;20038;-75
2023/01/15 05:36:04;;;;;;;2.28;1.00;;;;;;;5.18;100.00;94328.44;4992438;28;20050;-78
2023/01/15 05:38:30;;;;;;;1.05;0.88;;;;;;;5.31;100.00;94319.28;4974766;28;20043;-77
2023/01/15 05:40:56;;;;;;;1.20;0.80;;;;;;;5.96;100.00;94324.53;4989673;28;20049;-77
2023/01/15 05:43:21;;;;;;;3.38;1.00;;;;;;;6.22;100.00;94313.97;4984807;28;20501;-78
2023/01/15 05:45:47;;;;;;;1.35;0.85;;;;;;;6.29;100.00;94314.44;4956485;28;20042;-78
2023/01/15 05:48:12;;;;;;;2.40;1.20;;;;;;;6.37;100.00;94307.88;4962352;28;20489;-77
2023/01/15 05:50:38;;;;;;;1.05;0.90;;;;;;;6.16;100.00;94317.66;4976914;28;20034;-76
2023/01/15 05:53:03;;;;;;;5.47;1.10;;;;;;;6.23;100.00;94312.91;4985158;28;20058;-76
2023/01/15 05:55:29;;;;;;;1.77;0.75;;;;;;;6.33;100.00;94328.53;4972795;28;20051;-74
2023/01/15 05:57:54;;;;;;;3.05;1.13;;;;;;;6.18;100.00;94331.25;4998362;28;20416;-76
2023/01/15 06:00:20;;;;;;;2.30;1.40;;;;;;;6.61;100.00;94339.34;5000490;28;20065;-74
2023/01/15 06:02:49;;;;;;;1.55;0.75;;;;;;;6.73;100.00;94339.75;4980037;28;20038;-75
2023/01/15 06:05:19;;;;;;;1.55;1.00;;;;;;;6.81;100.00;94338.41;5002949;28;20112;-76
2023/01/15 06:07:47;;;;;;;0.88;0.80;;;;;;;6.93;100.00;94335.44;5002486;28;20515;-75
2023/01/15 06:10:17;;;;;;;3.13;0.95;;;;;;;6.80;100.00;94315.91;5004950;28;20077;-76
2023/01/15 06:12:43;;;;;;;2.60;0.98;;;;;;;6.76;100.00;94315.66;5005089;28;20038;-75
2023/01/15 06:15:10;;;;;;;3.05;1.15;;;;;;;6.56;100.00;94311.38;4985531;28;20053;-74
2023/01/15 06:17:35;;;;;;;1.63;0.93;;;;;;;6.27;100.00;94308.72;5004046;28;20400;-76
2023/01/15 06:20:01;;;;;;;0.95;0.68;;;;;;;6.19;100.00;94314.50;5006118;28;20045;-76
2023/01/15 06:22:28;;;;;;;1.95;1.15;;;;;;;6.27;100.00;94319.16;4990483;28;20039;-75
2023/01/15 06:24:53;;;;;;;3.80;1.17;;;;;;;6.65;100.00;94314.22;4991365;28;20057;-75
2023/01/15 06:27:19;;;;;;;0.77;0.52;;;;;;;7.07;100.00;94318.03;4980380;28;20042;-75
2023/01/15 06:29:44;;;;;;;3.28;1.00;;;;;;;7.23;100.00;94312.66;4993205;28;20038;-75
2023/01/15 06:32:10;;;;;;;3.10;1.00;;;;;;;7.44;100.00;94308.78;4989270;28;20416;-76
2023/01/15 06:34:36;;;;;;;1.27;0.80;;;;;;;7.58;100.00;94326.44;4999340;28;20534;-75
2023/01/15 06:37:01;;;;;;;1.67;0.77;;;;;;;7.59;100.00;94326.16;5003475;28;20063;-76
2023/01/15 06:39:27;;;;;;;0.65;0.65;;;;;;;8.36;100.00;94324.41;4988051;28;20084;-76
2023/01/15 06:47:21;;;;;;;0.68;0.50;;;;;;;9.68;100.00;94316.47;4997556;28;20046;-74
2023/01/15 06:49:55;;;;;;;0.35;0.28;;;;;;;9.71;100.00;94311.44;5006605;28;20038;-76
2023/01/15 06:52:22;;;;;;;0.55;0.25;;;;;;;9.79;100.00;94312.59;4979394;28;20038;-76
2023/01/15 06:54:48;;;;;;;0.52;0.38;;;;;;;9.99;100.00;94329.03;4980366;28;20120;-76
2023/01/15 06:57:14;;;;;;;1.75;0.50;;;;;;;9.93;100.00;94311.78;5006247;28;20120;-75
2023/01/15 06:59:39;;;;;;;0.93;0.40;;;;;;;9.93;100.00;94309.97;4985104;28;20042;-75
2023/01/15 07:02:05;;;;;;;0.20;0.20;;;;;;;10.13;100.00;94306.13;5000034;28;20550;-75
2023/01/15 07:04:31;;;;;;;0.40;0.40;;;;;;;9.94;100.00;94313.34;4990028;28;20046;-75
2023/01/15 07:06:56;;;;;;;0.68;0.20;;;;;;;9.85;100.00;94306.16;4991862;28;20480;-75
2023/01/15 07:09:22;;;;;;;3.50;0.57;;;;;;;10.20;100.00;94311.75;4990089;28;20042;-75
2023/01/15 07:11:50;;;;;;;0.30;0.30;;;;;;;10.30;100.00;94320.50;4978650;28;20042;-75
2023/01/15 07:14:20;;;;;;;0.38;0.32;;;;;;;10.19;100.00;94312.81;4993413;28;20125;-74
2023/01/15 07:16:46;;;;;;;0.30;0.30;;;;;;;10.10;100.00;94311.97;5003566;28;20042;-75
2023/01/15 07:19:12;;;;;;;1.38;0.60;;;;;;;10.18;100.00;94316.53;4986251;28;20124;-76
2023/01/15 07:21:38;;;;;;;0.20;0.20;;;;;;;10.16;100.00;94300.28;4986135;28;20046;-76
2023/01/15 07:24:04;;;;;;;0.45;0.45;;;;;;;10.03;100.00;94301.84;4993233;28;20039;-74
2023/01/15 07:26:29;;;;;;;0.13;0.13;;;;;;;10.07;100.00;94302.06;4994394;28;20046;-74
2023/01/15 07:28:55;;;;;;;0.45;0.40;;;;;;;10.03;100.00;94306.34;4997960;28;20233;-75
2023/01/15 07:31:20;;;;;;;0.40;0.40;;;;;;;9.92;100.00;94294.50;4996777;28;20522;-73
2023/01/15 07:33:46;;;;;;;0.82;0.45;;;;;;;10.06;100.00;94305.75;5000535;28;20511;-75
2023/01/15 07:36:12;;;;;;;0.20;0.20;;;;;;;10.25;100.00;94302.22;5008806;28;20042;-74
2023/01/15 07:38:37;;;;;;;0.65;0.50;;;;;;;10.26;100.00;94298.50;5003791;28;20511;-76
2023/01/15 07:51:59;;;;;;;0.90;0.33;;;;;;;10.54;100.00;94321.06;4994159;28;20291;-75
2023/01/15 07:54:25;;;;;;;1.02;0.43;;;;;;;10.37;100.00;94323.53;5010208;28;20358;-75
2023/01/15 07:56:52;;;;;;;0.60;0.60;;;;;;;10.47;100.00;94331.19;4989323;28;20066;-76
2023/01/15 07:59:17;;;;;;;1.38;0.40;;;;;;;10.54;100.00;94326.31;5006673;28;20046;-75
2023/01/15 08:01:43;;;;;;;1.77;0.40;;;;;;;10.51;100.00;94326.88;4999497;28;20744;-75
2023/01/15 08:04:08;;;;;;;0.43;0.20;;;;;;;10.53;100.00;94330.00;5008497;28;20052;-75
2023/01/15 08:06:35;;;;;;;0.88;0.28;;;;;;;10.56;100.00;94318.91;5005961;28;20096;-75
2023/01/15 08:09:01;;;;;;;1.67;0.77;;;;;;;10.56;100.00;94333.91;4994335;28;20050;-75
2023/01/15 08:16:55;;;;;;;0.70;0.38;;;;;;;10.61;100.00;94322.47;5009838;28;20038;-74
2023/01/15 08:19:21;;;;;;;1.42;0.38;;;;;;;10.55;100.00;94319.97;5003658;28;20041;-75
2023/01/15 08:21:47;;;;;;;1.30;0.60;;;;;;;10.47;100.00;94320.66;5002240;28;20045;-75
2023/01/15 08:24:12;;;;;;;1.25;0.30;;;;;;;10.48;100.00;94314.34;5005273;28;20673;-75
2023/01/15 08:26:38;;;;;;;0.35;0.35;;;;;;;10.44;100.00;94305.47;4994009;28;20124;-73
2023/01/15 08:29:03;;;;;;;0.50;0.40;;;;;;;10.41;100.00;94316.59;4993783;28;20038;-74
2023/01/15 08:31:29;;;;;;;1.05;0.70;;;;;;;10.39;100.00;94318.75;4976046;28;20045;-76
2023/01/15 08:33:55;;;;;;;0.60;0.60;;;;;;;10.39;100.00;94308.25;5010518;28;20042;-77
2023/01/15 08:36:20;;;;;;;0.95;0.60;;;;;;;10.31;100.00;94311.53;4995720;28;20058;-75
2023/01/15 08:38:49;;;;;;;0.57;0.50;;;;;;;10.32;100.00;94302.59;5003099;28;20138;-73
2023/01/15 08:41:15;;;;;;;3.03;0.70;;;;;;;10.22;100.00;94304.34;4996401;28;20112;-75
2023/01/15 08:43:41;;;;;;;0.82;0.57;;;;;;;10.22;100.00;94306.22;5008004;28;20495;-75
2023/01/15 08:46:07;;;;;;;3.55;0.77;;;;;;;10.28;100.00;94302.38;5004629;28;20117;-73
2023/01/15 08:48:33;;;;;;;0.60;0.60;;;;;;;10.37;100.00;94294.59;4990879;28;20038;-73
2023/01/15 08:51:03;;;;;;;0.95;0.50;;;;;;;10.48;100.00;94285.41;5003803;28;20046;-75
2023/01/15 08:53:28;;;;;;;0.80;0.45;;;;;;;10.51;100.00;94284.81;5007977;28;20045;-75
2023/01/15 08:55:54;;;;;;;1.25;0.70;;;;;;;10.44;100.00;94284.44;5004272;28;20117;-76
2023/01/15 08:58:20;;;;;;;1.05;0.60;;;;;;;10.45;100.00;94275.47;4992232;28;20392;-74
2023/01/15 09:00:47;;;;;;;5.35;0.60;;;;;;;10.39;100.00;94272.19;4984978;28;20056;-76
2023/01/15 09:03:13;;;;;;;1.08;0.82;;;;;;;10.46;100.00;94271.00;5005464;28;20471;-75
2023/01/15 09:05:39;;;;;;;0.93;0.68;;;;;;;10.45;100.00;94257.06;4977820;28;20055;-76
2023/01/15 09:08:05;;;;;;;1.00;0.70;;;;;;;10.44;100.00;94271.28;4990698;28;20050;-75
2023/01/15 09:10:32;;;;;;;1.08;0.75;;;;;;;10.56;100.00;94257.63;4993330;28;20042;-75
2023/01/15 09:12:59;;;;;;;1.50;0.75;;;;;;;10.45;100.00;94243.91;4997226;28;20054;-75
2023/01/15 09:15:25;;;;;;;0.85;0.50;;;;;;;10.42;100.00;94255.03;5000730;28;20053;-75
2023/01/15 09:17:51;;;;;;;4.97;0.80;;;;;;;10.72;100.00;94258.03;4998604;28;20492;-75
2023/01/15 09:20:16;;;;;;;3.85;1.20;;;;;;;10.69;100.00;94248.13;4996308;28;20042;-74
2023/01/15 09:22:42;;;;;;;1.23;0.88;;;;;;;10.95;98.16;94231.66;5005133;28;20042;-74
2023/01/15 09:25:08;;;;;;;3.28;0.95;;;;;;;10.99;96.04;94235.25;5003642;28;20050;-75
2023/01/15 09:27:34;;;;;;;1.23;0.80;;;;;;;11.03;93.60;94226.47;4999985;28;20060;-75
2023/01/15 09:30:00;;;;;;;1.25;0.95;;;;;;;11.21;89.94;94206.22;4990453;28;20046;-74
2023/01/15 09:32:25;;;;;;;2.42;0.80;;;;;;;11.38;87.38;94210.00;5004072;28;20484;-75
2023/01/15 09:34:51;;;;;;;1.25;0.63;;;;;;;11.48;86.26;94196.56;4997264;28;20053;-71
2023/01/15 09:37:16;;;;;;;0.93;0.68;;;;;;;11.57;84.09;94197.34;4989786;28;20464;-73
2023/01/15 09:39:42;;;;;;;1.48;0.98;;;;;;;11.65;82.13;94192.38;4987962;28;20053;-75
2023/01/15 09:42:07;;;;;;;3.08;1.00;;;;;;;11.75;78.93;94181.53;5005672;28;20041;-76
2023/01/15 09:44:51;;;;;;;2.90;1.00;;;;;;;11.71;81.18;94185.88;4993476;28;20457;-75
2023/01/15 09:47:26;;;;;;;1.00;0.83;;;;;;;12.06;73.86;94191.22;4973819;28;20050;-75
2023/01/15 09:50:24;;;;;;;1.90;0.90;;;;;;;12.11;75.03;94177.84;4992485;28;20042;-75
2023/01/15 09:52:49;;;;;;;2.25;1.05;;;;;;;12.26;72.11;94195.84;4971550;28;20060;-73
2023/01/15 09:55:28;;;;;;;1.27;1.00;;;;;;;12.23;72.16;94207.03;5004346;28;20042;-74
2023/01/15 09:57:57;;;;;;;2.03;1.10;;;;;;;12.31;71.82;94210.72;4999520;28;20047;-74
2023/01/15 10:00:26;;;;;;;2.13;1.20;;;;;;;12.31;72.20;94208.09;4988022;28;20067;-72
2023/01/15 10:02:58;;;;;;;3.53;0.80;;;;;;;12.28;70.64;94203.44;4982704;28;20092;-75
2023/01/15 10:05:30;;;;;;;4.18;1.20;;;;;;;12.24;73.21;94213.88;5000345;28;20050;-74
2023/01/15 10:08:05;;;;;;;1.58;0.90;;;;;;;12.24;72.25;94240.25;4994114;28;20084;-74
2023/01/15 10:10:38;;;;;;;1.13;0.90;;;;;;;12.16;72.45;94243.63;5005455;28;20389;-74
2023/01/15 10:13:23;;;;;;;1.50;1.13;;;;;;;12.02;73.75;94275.41;4989973;28;20400;-74
2023/01/15 10:15:49;;;;;;;2.75;0.98;;;;;;;11.66;84.27;94299.34;4967375;28;20050;-73
2023/01/15 10:18:20;;;;;;;0.85;0.70;;;;;;;10.70;98.12;94336.47;5002970;28;20053;-75
2023/01/15 10:20:45;;;;;;;1.45;1.00;;;;;;;9.52;100.00;94348.31;5010635;28;20048;-76
2023/01/15 10:23:31;;;;;;;0.80;0.70;;;;;;;8.88;100.00;94389.25;4994281;28;20627;-74
2023/01/15 10:26:16;;;;;;;3.00;1.00;;;;;;;8.04;100.00;94414.94;4997554;28;20054;-74
2023/01/15 10:29:02;;;;;;;0.80;0.47;;;;;;;7.68;100.00;94433.66;5008377;28;20049;-75
2023/01/15 10:31:46;;;;;;;0.95;0.60;;;;;;;7.32;100.00;94431.38;4975382;28;20509;-76
2023/01/15 10:34:33;;;;;;;4.72;1.05;;;;;;;7.01;100.00;94447.31;4983848;28;20118;-76
2023/01/15 10:37:02;;;;;;;0.47;0.47;;;;;;;6.53;100.00;94457.53;4985039;28;20104;-77
2023/01/15 10:40:02;;;;;;;2.28;0.88;;;;;;;6.41;100.00;94450.78;5000920;28;20511;-75
2023/01/15 10:42:45;;;;;;;0.65;0.47;;;;;;;6.18;100.00;94461.88;5003681;28;20099;-76
2023/01/15 10:45:20;;;;;;;0.40;0.40;;;;;;;6.03;100.00;94466.09;5001665;28;20100;-75
2023/01/15 10:47:52;;;;;;;0.35;0.35;;;;;;;5.96;100.00;94478.63;4985064;28;20030;-75
2023/01/15 10:50:24;;;;;;;0.52;0.47;;;;;;;5.75;100.00;94477.06;5005938;28;20045;-73
2023/01/15 10:52:56;;;;;;;0.30;0.30;;;;;;;5.79;100.00;94476.28;4979481;28;20126;-75
2023/01/15 10:55:31;;;;;;;0.55;0.40;;;;;;;5.61;100.00;94482.84;4981137;28;20069;-74
2023/01/15 10:58:13;;;;;;;0.20;0.20;;;;;;;5.62;100.00;94492.25;4994523;28;20045;-74
2023/01/15 11:00:39;;;;;;;0.63;0.60;;;;;;;5.66;100.00;94482.84;4995153;28;20070;-75
2023/01/15 11:03:17;;;;;;;0.60;0.60;;;;;;;5.63;100.00;94491.19;5001190;28;20046;-73
2023/01/15 11:05:45;;;;;;;0.70;0.52;;;;;;;5.57;100.00;94502.66;5010100;28;20050;-74
2023/01/15 11:08:31;;;;;;;0.38;0.38;;;;;;;5.58;100.00;94506.84;4990185;28;20041;-74
2023/01/15 11:11:15;;;;;;;0.75;0.50;;;;;;;5.31;100.00;94497.44;4976405;28;20046;-76
2023/01/15 11:21:50;;;;;;;1.17;0.70;;;;;;;5.09;100.00;94499.53;5000211;28;20038;-74
2023/01/15 11:24:17;;;;;;;2.70;0.80;;;;;;;5.19;100.00;94513.34;5000504;28;20112;-75
2023/01/15 11:26:51;;;;;;;4.15;1.30;;;;;;;5.14;100.00;94517.78;4987260;28;20088;-75
2023/01/15 11:29:32;;;;;;;2.15;1.20;;;;;;;5.28;100.00;94539.72;4996792;28;20039;-75
2023/01/15 11:31:57;;;;;;;1.58;0.90;;;;;;;5.17;100.00;94532.91;4991155;28;20493;-74
2023/01/15 11:34:23;;;;;;;1.27;0.90;;;;;;;5.16;100.00;94541.81;4993038;28;20071;-76
2023/01/15 11:37:01;;;;;;;1.25;0.90;;;;;;;5.05;100.00;94540.22;4993601;28;20563;-76
2023/01/15 11:39:29;;;;;;;1.55;1.05;;;;;;;4.93;100.00;94543.84;4999014;28;20042;-75
2023/01/15 11:50:59;;;;;;;1.45;1.00;;;;;;;4.50;100.00;94571.81;5005420;28;20069;-75
2023/01/15 11:53:33;;;;;;;1.95;1.00;;;;;;;4.50;100.00;94593.44;4999520;28;20073;-74
2023/01/15 11:56:05;;;;;;;1.40;0.88;;;;;;;4.58;100.00;94607.03;4980983;28;20045;-74
2023/01/15 11:58:47;;;;;;;2.55;1.15;;;;;;;4.46;100.00;94609.84;4988778;28;20100;-75
2023/01/15 12:01:24;;;;;;;1.55;1.08;;;;;;;4.41;100.00;94620.22;4986999;28;20049;-75
2023/01/15 12:03:49;;;;;;;1.48;1.00;;;;;;;4.33;100.00;94617.06;5008291;28;20083;-75
2023/01/15 12:06:19;;;;;;;2.10;1.00;;;;;;;4.34;100.00;94633.47;5000772;28;20484;-75
2023/01/15 12:08:52;;;;;;;0.90;0.70;;;;;;;4.13;100.00;94635.16;5001430;28;20380;-73
2023/01/15 12:11:46;;;;;;;1.15;0.90;;;;;;;4.07;100.00;94654.38;4982046;28;20038;-74
2023/01/15 12:14:17;;;;;;;1.92;1.20;;;;;;;4.07;100.00;94662.19;4991902;28;20045;-75
2023/01/15 12:16:46;;;;;;;1.25;0.90;;;;;;;4.01;100.00;94668.38;4975596;28;20042;-74
2023/01/15 12:19:21;;;;;;;4.70;1.25;;;;;;;3.94;100.00;94668.59;4976464;28;20108;-74
2023/01/15 12:22:16;;;;;;;1.92;1.10;;;;;;;3.96;100.00;94676.94;4994419;28;20034;-74
2023/01/15 12:25:19;;;;;;;2.70;1.20;;;;;;;3.87;100.00;94674.00;4999701;28;20052;-74
2023/01/15 12:27:53;;;;;;;1.45;1.00;;;;;;;3.97;100.00;94688.94;4938317;28;20071;-74
2023/01/15 12:30:34;;;;;;;1.33;0.98;;;;;;;3.93;100.00;94687.84;5000051;28;20053;-76
2023/01/15 12:33:20;;;;;;;1.20;1.10;;;;;;;3.88;100.00;94693.81;4977313;28;20049;-75